Time;durP1;ratioP1;P1;durP2;ratioP2;P2;SDS_P1;SDS_P2;PMS_P1;PMS_P2;Temp;Humidity;BMP_temperature;BMP_pressure;BME280_temperature;BME280_humidity;BME280_pressure;Samples;Min_cycle;Max_cycle;Signal;HPM_P1;HPM_P2
2022/07/26 00:00:52;;;;;;;68.10;2.67;;;22.60;1.00;;;;;;5081481;28;20167;-83
2022/07/26 00:03:17;;;;;;;69.63;3.37;;;22.60;1.00;;;;;;5081920;28;20168;-83
2022/07/26 00:05:43;;;;;;;67.67;2.90;;;22.50;1.00;;;;;;5082147;28;20156;-83
2022/07/26 00:08:12;;;;;;;70.80;3.00;;;22.50;1.00;;;;;;5081084;28;20532;-83
2022/07/26 00:10:43;;;;;;;71.03;3.00;;;22.50;1.00;;;;;;5063733;28;20172;-83
2022/07/26 00:13:10;;;;;;;67.80;3.30;;;22.50;1.00;;;;;;5081435;28;20387;-84
2022/07/26 00:15:36;;;;;;;67.90;2.93;;;22.50;1.00;;;;;;5081382;28;20450;-83
2022/07/26 00:18:03;;;;;;;66.53;2.90;;;22.60;1.00;;;;;;5081413;28;20794;-83
2022/07/26 00:20:28;;;;;;;70.70;3.37;;;22.50;1.00;;;;;;5081784;28;20407;-83
2022/07/26 00:22:54;;;;;;;67.97;3.47;;;22.50;1.00;;;;;;5081912;28;20405;-83
2022/07/26 00:25:20;;;;;;;67.07;2.77;;;22.40;1.00;;;;;;5081542;28;20410;-83
2022/07/26 00:27:46;;;;;;;68.53;3.07;;;22.40;1.00;;;;;;5081345;28;20270;-83
2022/07/26 00:30:13;;;;;;;68.93;2.77;;;22.40;1.00;;;;;;5081389;28;20437;-83
2022/07/26 00:32:39;;;;;;;67.87;2.97;;;22.40;1.00;;;;;;5081408;28;20167;-83
2022/07/26 00:35:05;;;;;;;70.43;3.07;;;22.30;1.00;;;;;;5081125;28;20456;-83
2022/07/26 00:37:31;;;;;;;68.17;3.30;;;22.20;1.00;;;;;;5081255;28;20438;-83
2022/07/26 00:39:57;;;;;;;70.00;2.93;;;22.20;1.00;;;;;;5081050;28;20460;-83
2022/07/26 00:42:22;;;;;;;67.77;3.03;;;22.10;1.00;;;;;;5081258;28;20171;-83
2022/07/26 00:44:48;;;;;;;68.40;3.20;;;22.00;1.00;;;;;;5081205;28;20171;-83
2022/07/26 00:47:14;;;;;;;67.07;3.07;;;21.90;1.00;;;;;;5063216;28;20239;-83
2022/07/26 00:49:40;;;;;;;65.97;2.60;;;21.90;1.00;;;;;;5081418;28;20167;-83
2022/07/26 00:52:07;;;;;;;65.93;2.70;;;21.90;1.00;;;;;;5063319;28;20406;-83
2022/07/26 00:54:34;;;;;;;67.43;3.20;;;21.80;1.00;;;;;;5081474;28;20489;-83
2022/07/26 00:57:01;;;;;;;67.17;2.97;;;21.80;1.00;;;;;;5061970;28;20887;-84
2022/07/26 00:59:27;;;;;;;65.80;3.30;;;21.70;2.20;;;;;;5081519;28;20426;-83
2022/07/26 01:01:53;;;;;;;65.87;3.20;;;21.60;5.30;;;;;;5063887;28;20895;-83
2022/07/26 01:04:19;;;;;;;67.67;4.13;;;21.60;6.80;;;;;;5081648;28;20425;-83
2022/07/26 01:06:47;;;;;;;67.47;4.07;;;21.60;6.70;;;;;;5081244;28;20407;-83
2022/07/26 01:09:13;;;;;;;66.20;3.73;;;21.60;7.50;;;;;;5080962;28;20466;-83
2022/07/26 01:11:38;;;;;;;68.00;4.70;;;21.70;8.20;;;;;;5081530;28;20523;-83
2022/07/26 01:14:05;;;;;;;67.33;4.67;;;21.70;8.50;;;;;;5080591;28;20441;-83
2022/07/26 01:16:30;;;;;;;67.77;5.90;;;21.60;10.30;;;;;;5081154;28;20192;-83
2022/07/26 01:18:58;;;;;;;68.57;5.20;;;21.60;11.70;;;;;;5080503;28;20436;-83
2022/07/26 01:21:31;;;;;;;70.20;5.97;;;21.60;12.30;;;;;;5062352;28;20175;-83
2022/07/26 01:23:57;;;;;;;67.27;6.17;;;21.60;12.80;;;;;;5080820;28;20920;-83
2022/07/26 01:26:26;;;;;;;68.07;6.80;;;21.50;13.40;;;;;;5076324;28;20410;-83
2022/07/26 01:28:52;;;;;;;71.17;8.47;;;21.50;14.60;;;;;;5076391;28;20433;-83
2022/07/26 01:31:17;;;;;;;70.07;6.67;;;21.50;14.90;;;;;;5058082;28;20403;-83
2022/07/26 01:33:43;;;;;;;71.07;7.43;;;21.50;16.00;;;;;;5075512;28;20176;-83
2022/07/26 01:36:11;;;;;;;70.37;7.60;;;21.40;17.30;;;;;;5077118;28;20194;-83
2022/07/26 01:38:37;;;;;;;69.97;7.77;;;21.30;19.30;;;;;;5075253;28;20199;-83
2022/07/26 01:41:02;;;;;;;68.73;9.87;;;21.30;21.50;;;;;;5075264;28;20409;-83
2022/07/26 01:43:28;;;;;;;70.40;9.70;;;21.20;23.30;;;;;;5075287;28;20398;-83
2022/07/26 01:45:54;;;;;;;70.27;11.13;;;21.20;24.90;;;;;;5057480;28;20176;-83
2022/07/26 01:48:20;;;;;;;72.33;10.60;;;21.20;25.00;;;;;;5075101;28;20237;-83
2022/07/26 01:50:45;;;;;;;69.80;8.83;;;21.20;24.90;;;;;;5075118;28;20164;-83
2022/07/26 01:53:11;;;;;;;68.57;9.17;;;21.30;24.60;;;;;;5075576;28;20168;-83
2022/07/26 01:55:37;;;;;;;68.33;9.00;;;21.30;24.60;;;;;;5074925;28;20213;-83
2022/07/26 01:58:04;;;;;;;68.27;8.47;;;21.30;24.70;;;;;;5056894;28;20184;-83
2022/07/26 02:00:30;;;;;;;73.00;10.00;;;21.20;25.40;;;;;;5057095;28;20180;-83
2022/07/26 02:02:59;;;;;;;70.67;11.67;;;21.20;25.20;;;;;;5075332;28;20422;-83
2022/07/26 02:05:25;;;;;;;71.20;10.67;;;21.20;26.80;;;;;;5056868;28;20437;-83
2022/07/26 02:07:51;;;;;;;69.33;12.37;;;21.00;29.80;;;;;;5056886;28;20953;-83
2022/07/26 02:10:17;;;;;;;69.97;11.50;;;21.00;31.60;;;;;;5077726;28;20591;-83
2022/07/26 02:12:42;;;;;;;69.87;11.70;;;20.90;36.30;;;;;;5078644;28;20167;-83
2022/07/26 02:15:10;;;;;;;69.03;13.37;;;20.90;33.90;;;;;;5078396;28;20191;-83
2022/07/26 02:17:36;;;;;;;69.57;12.50;;;20.90;34.30;;;;;;5078721;28;20790;-83
2022/07/26 02:20:02;;;;;;;69.50;12.60;;;20.90;34.00;;;;;;5078136;28;20463;-83
2022/07/26 02:22:28;;;;;;;68.30;12.60;;;20.90;35.10;;;;;;5078497;28;20172;-83
2022/07/26 02:24:54;;;;;;;69.40;11.30;;;20.90;36.20;;;;;;5078227;28;20406;-83
2022/07/26 02:27:20;;;;;;;69.07;10.30;;;20.90;37.10;;;;;;5078278;28;20192;-83
2022/07/26 02:29:45;;;;;;;70.63;10.50;;;20.70;41.10;;;;;;5078229;28;20168;-83
2022/07/26 02:32:11;;;;;;;69.10;9.77;;;20.80;40.20;;;;;;5078444;28;20410;-83
2022/07/26 02:34:37;;;;;;;72.73;9.53;;;20.70;41.20;;;;;;5078586;28;20205;-83
2022/07/26 02:37:03;;;;;;;68.60;8.53;;;20.70;42.00;;;;;;5078780;28;20163;-83
2022/07/26 02:39:29;;;;;;;68.30;9.50;;;20.80;41.10;;;;;;5078015;28;20267;-83
2022/07/26 02:41:57;;;;;;;68.80;9.40;;;20.80;39.30;;;;;;5078010;28;20460;-83
2022/07/26 02:44:24;;;;;;;67.97;8.10;;;20.80;40.90;;;;;;5078014;28;20434;-83
2022/07/26 02:46:50;;;;;;;67.70;10.03;;;20.80;41.50;;;;;;5151779;22;20899;-81
2022/07/26 02:49:16;;;;;;;68.37;7.30;;;20.80;41.60;;;;;;5081080;28;20414;-81
2022/07/26 02:51:42;;;;;;;71.10;8.60;;;20.70;42.70;;;;;;5081567;28;20406;-81
2022/07/26 02:54:08;;;;;;;68.93;8.50;;;20.70;46.40;;;;;;5080760;28;20528;-81
2022/07/26 02:56:33;;;;;;;68.20;7.10;;;20.70;44.90;;;;;;5081567;28;20249;-81
2022/07/26 02:58:59;;;;;;;72.33;7.63;;;20.70;44.30;;;;;;5079873;28;20181;-81
2022/07/26 03:01:25;;;;;;;68.57;7.00;;;20.70;45.30;;;;;;5081500;28;20668;-81
2022/07/26 03:03:54;;;;;;;68.67;7.93;;;20.60;48.00;;;;;;5080822;28;20220;-81
2022/07/26 03:06:19;;;;;;;70.17;8.87;;;20.60;49.10;;;;;;5081113;28;20476;-81
2022/07/26 03:08:46;;;;;;;67.47;7.97;;;20.50;50.70;;;;;;5081079;28;20512;-81
2022/07/26 03:11:12;;;;;;;67.67;7.47;;;20.60;50.70;;;;;;5080385;28;20198;-81
2022/07/26 03:13:38;;;;;;;68.60;9.03;;;20.60;50.30;;;;;;5081101;28;20404;-81
2022/07/26 03:16:05;;;;;;;70.10;7.70;;;20.60;50.30;;;;;;5080529;28;20444;-82
2022/07/26 03:18:31;;;;;;;69.97;9.27;;;20.60;52.80;;;;;;5081160;28;20427;-81
2022/07/26 03:20:56;;;;;;;67.37;8.63;;;20.40;54.80;;;;;;5080700;28;20972;-82
2022/07/26 03:23:22;;;;;;;70.23;9.67;;;20.50;54.00;;;;;;5080673;28;20160;-82
2022/07/26 03:25:48;;;;;;;71.40;12.60;;;20.40;57.20;;;;;;5080975;28;20160;-81
2022/07/26 03:28:14;;;;;;;70.17;9.53;;;20.40;58.70;;;;;;5080350;28;20186;-81
2022/07/26 03:30:39;;;;;;;72.07;11.10;;;20.50;55.80;;;;;;5081719;28;20528;-81
2022/07/26 03:33:08;;;;;;;68.07;10.20;;;20.50;55.60;;;;;;5080826;28;20210;-82
2022/07/26 03:35:34;;;;;;;72.60;12.27;;;20.40;59.10;;;;;;5080595;28;20189;-81
2022/07/26 03:37:59;;;;;;;70.60;13.00;;;20.40;58.90;;;;;;5080670;28;20417;-81
2022/07/26 03:40:25;;;;;;;70.40;12.03;;;20.40;59.10;;;;;;5080242;28;20247;-81
2022/07/26 03:42:51;;;;;;;77.97;14.03;;;20.50;61.30;;;;;;5079517;28;20530;-81
2022/07/26 03:45:17;;;;;;;70.17;12.60;;;20.40;63.50;;;;;;5080550;28;20160;-81
2022/07/26 03:47:45;;;;;;;74.40;15.00;;;20.50;62.00;;;;;;5078490;28;20422;-81
2022/07/26 03:50:12;;;;;;;72.17;14.27;;;20.50;62.30;;;;;;5078722;28;20168;-81
2022/07/26 03:52:38;;;;;;;70.83;17.77;;;20.40;68.00;;;;;;5079619;28;20431;-81
2022/07/26 03:56:27;;;;;;;72.87;21.60;;;20.30;68.30;;;;;;5080462;28;20438;-82
2022/07/26 03:57:51;;;;;;;70.97;16.60;;;20.40;68.40;;;;;;5081012;28;20418;-82
2022/07/26 04:00:16;;;;;;;72.00;16.03;;;20.40;70.50;;;;;;5080049;28;20396;-82
2022/07/26 04:02:43;;;;;;;72.03;15.20;;;20.40;71.10;;;;;;5079336;28;20666;-82
2022/07/26 04:05:09;;;;;;;72.43;18.17;;;20.40;70.60;;;;;;5079463;28;20409;-81
2022/07/26 04:07:41;;;;;;;74.13;22.63;;;20.30;79.70;;;;;;5077860;28;20803;-81
2022/07/26 04:10:08;;;;;;;71.17;18.43;;;20.20;76.60;;;;;;5079480;28;20379;-81
2022/07/26 04:12:33;;;;;;;71.53;15.23;;;20.30;75.40;;;;;;5080026;28;20400;-81
2022/07/26 04:14:59;;;;;;;74.20;20.37;;;20.40;72.80;;;;;;5079919;28;20513;-81
2022/07/26 04:17:25;;;;;;;71.23;24.37;;;20.30;78.50;;;;;;5078615;28;20156;-81
2022/07/26 04:19:50;;;;;;;73.23;15.40;;;20.40;74.00;;;;;;5078671;28;20175;-81
2022/07/26 04:22:16;;;;;;;73.17;19.07;;;20.40;73.50;;;;;;5078787;28;20168;-81
2022/07/26 04:24:42;;;;;;;73.53;18.27;;;20.40;71.30;;;;;;5080072;28;20251;-81
2022/07/26 04:27:07;;;;;;;71.63;16.03;;;20.40;72.30;;;;;;5078714;28;20156;-81
2022/07/26 04:29:33;;;;;;;72.77;21.90;;;20.30;73.60;;;;;;5077748;28;20262;-81
2022/07/26 04:31:59;;;;;;;71.67;19.70;;;20.20;76.80;;;;;;5079173;28;20164;-81
2022/07/26 04:34:24;;;;;;;73.03;19.87;;;20.20;77.70;;;;;;5079240;28;20174;-81
2022/07/26 04:36:50;;;;;;;72.17;20.63;;;20.30;76.90;;;;;;5080116;28;20179;-81
2022/07/26 04:39:23;;;;;;;84.07;25.60;;;20.30;78.00;;;;;;5078816;28;20201;-81
2022/07/26 04:41:49;;;;;;;72.97;18.83;;;20.10;80.70;;;;;;5078355;28;20397;-81
2022/07/26 04:44:14;;;;;;;78.03;25.67;;;20.20;78.90;;;;;;5078922;28;20472;-81
2022/07/26 04:46:40;;;;;;;77.37;26.17;;;20.20;78.50;;;;;;5079117;28;20789;-81
2022/07/26 04:49:06;;;;;;;74.87;26.33;;;20.20;83.90;;;;;;5079378;28;20201;-81
2022/07/26 04:51:31;;;;;;;73.37;24.23;;;20.30;81.50;;;;;;5079020;28;20191;-81
2022/07/26 04:53:57;;;;;;;82.73;25.90;;;20.30;82.70;;;;;;5079734;28;20162;-82
2022/07/26 04:56:23;;;;;;;72.97;21.77;;;20.30;82.80;;;;;;5078802;28;20549;-81
2022/07/26 04:58:48;;;;;;;73.20;23.83;;;20.40;81.30;;;;;;5079451;28;20181;-81
2022/07/26 05:01:14;;;;;;;72.70;20.83;;;20.40;80.50;;;;;;5079178;28;20677;-81
2022/07/26 05:03:40;;;;;;;73.90;27.27;;;20.40;83.20;;;;;;5078678;28;20165;-81
2022/07/26 05:06:06;;;;;;;74.47;22.30;;;20.30;84.00;;;;;;5080608;28;20170;-81
2022/07/26 05:08:31;;;;;;;74.77;25.07;;;20.30;83.50;;;;;;5079340;28;20193;-81
2022/07/26 05:10:57;;;;;;;74.37;23.90;;;20.30;86.90;;;;;;5079483;28;20398;-81
2022/07/26 05:13:23;;;;;;;72.20;22.20;;;20.30;84.90;;;;;;5079623;28;20169;-81
2022/07/26 05:15:49;;;;;;;73.47;23.33;;;20.30;85.40;;;;;;5079279;28;20217;-81
2022/07/26 05:18:15;;;;;;;79.93;24.50;;;20.30;91.00;;;;;;5079595;28;20421;-81
2022/07/26 05:20:41;;;;;;;76.20;32.13;;;20.30;90.40;;;;;;5079672;28;20629;-81
2022/07/26 05:23:07;;;;;;;80.27;34.43;;;20.20;90.70;;;;;;5079920;28;20391;-81
2022/07/26 05:25:33;;;;;;;77.80;23.20;;;20.30;90.80;;;;;;5078874;28;20194;-81
2022/07/26 05:27:59;;;;;;;71.90;17.90;;;20.40;90.40;;;;;;5078874;28;20477;-81
2022/07/26 05:30:24;;;;;;;73.17;17.03;;;20.50;88.10;;;;;;5079934;28;20864;-81
2022/07/26 05:32:50;;;;;;;75.57;17.87;;;20.50;87.10;;;;;;5079374;28;20184;-81
2022/07/26 05:35:16;;;;;;;72.30;17.90;;;20.50;86.90;;;;;;5079054;28;20195;-81
2022/07/26 05:37:42;;;;;;;72.97;18.37;;;20.60;84.90;;;;;;5078586;28;20188;-81
2022/07/26 05:40:09;;;;;;;74.37;19.27;;;20.50;90.00;;;;;;5078812;28;20684;-81
2022/07/26 05:42:34;;;;;;;72.50;24.63;;;20.50;92.40;;;;;;5079099;28;20403;-82
2022/07/26 05:45:00;;;;;;;77.43;25.00;;;20.40;91.60;;;;;;5080998;28;20415;-82
2022/07/26 05:47:26;;;;;;;79.60;24.97;;;20.40;93.00;;;;;;5083664;28;20426;-81
2022/07/26 05:49:52;;;;;;;71.30;19.10;;;20.40;93.40;;;;;;5083255;28;20177;-82
2022/07/26 05:52:17;;;;;;;71.47;19.17;;;20.50;91.60;;;;;;5083285;28;20665;-81
2022/07/26 05:54:43;;;;;;;76.53;20.03;;;20.60;91.00;;;;;;5082987;28;20208;-81
2022/07/26 05:57:09;;;;;;;75.90;18.80;;;20.60;90.90;;;;;;5083006;28;20167;-81
2022/07/26 05:59:34;;;;;;;77.60;20.40;;;20.60;90.10;;;;;;5083257;28;20186;-81
2022/07/26 06:02:00;;;;;;;74.03;21.77;;;20.50;92.60;;;;;;5081916;28;20166;-81
2022/07/26 06:04:26;;;;;;;69.70;17.37;;;20.60;92.10;;;;;;5083648;28;20655;-81
2022/07/26 06:06:53;;;;;;;78.33;24.73;;;20.50;94.00;;;;;;5082968;28;20161;-82
2022/07/26 06:09:19;;;;;;;75.57;26.03;;;20.40;93.90;;;;;;5082176;28;20953;-81
2022/07/26 06:11:44;;;;;;;84.70;44.00;;;20.40;95.70;;;;;;5081978;28;20390;-82
2022/07/26 06:14:10;;;;;;;90.33;64.40;;;20.40;96.40;;;;;;5082566;28;20251;-81
2022/07/26 06:16:36;;;;;;;101.80;85.97;;;20.30;97.40;;;;;;5082896;28;20201;-81
2022/07/26 06:19:01;;;;;;;91.67;80.03;;;20.40;99.50;;;;;;5081340;28;20547;-82
2022/07/26 06:21:27;;;;;;;95.97;82.27;;;20.40;98.10;;;;;;5082063;28;20521;-81
2022/07/26 06:23:53;;;;;;;89.97;67.70;;;20.50;99.90;;;;;;5081661;28;20167;-81
2022/07/26 06:26:19;;;;;;;90.77;72.20;;;20.30;99.90;;;;;;5082141;28;20255;-80
2022/07/26 06:28:45;;;;;;;95.10;68.30;;;20.30;99.90;;;;;;5081979;28;20186;-81
2022/07/26 06:31:10;;;;;;;103.27;66.80;;;20.10;99.90;;;;;;5082971;28;20407;-80
2022/07/26 06:33:36;;;;;;;90.00;54.90;;;20.00;99.90;;;;;;5082661;28;20752;-81
2022/07/26 06:36:02;;;;;;;91.17;57.43;;;20.00;99.90;;;;;;5082054;28;20193;-81
2022/07/26 06:38:27;;;;;;;86.30;48.03;;;20.00;99.90;;;;;;5082297;28;20536;-81
2022/07/26 06:40:53;;;;;;;86.87;46.33;;;20.10;99.90;;;;;;5082112;28;20158;-81
2022/07/26 06:43:19;;;;;;;78.57;38.13;;;20.10;99.90;;;;;;5082128;28;20173;-81
2022/07/26 06:45:45;;;;;;;79.50;38.60;;;20.10;99.90;;;;;;5081474;28;20176;-81
2022/07/26 06:48:11;;;;;;;80.73;48.73;;;20.20;99.90;;;;;;5080150;28;20440;-81
2022/07/26 06:50:37;;;;;;;84.10;42.73;;;20.30;99.90;;;;;;5081675;28;20161;-81
2022/07/26 06:53:03;;;;;;;78.07;31.00;;;20.40;99.90;;;;;;5080421;28;20679;-81
2022/07/26 06:55:28;;;;;;;88.93;45.67;;;20.40;99.90;;;;;;5081886;28;20474;-80
2022/07/26 06:57:54;;;;;;;76.30;36.40;;;20.40;99.90;;;;;;5082028;28;20176;-81
2022/07/26 07:00:20;;;;;;;82.50;46.47;;;20.40;99.90;;;;;;5082283;28;20165;-80
2022/07/26 07:02:45;;;;;;;85.33;38.20;;;20.50;99.90;;;;;;5081594;28;20213;-81
2022/07/26 07:05:11;;;;;;;79.90;33.10;;;20.50;99.90;;;;;;5082347;28;20168;-81
2022/07/26 07:07:37;;;;;;;80.53;35.50;;;20.50;99.90;;;;;;5081865;28;20608;-80
2022/07/26 07:10:04;;;;;;;78.33;36.13;;;20.60;99.90;;;;;;5081835;28;20170;-81
2022/07/26 07:12:30;;;;;;;79.83;39.60;;;20.70;99.90;;;;;;5082338;28;20406;-81
2022/07/26 07:14:55;;;;;;;85.63;44.00;;;20.80;99.90;;;;;;5082409;28;20866;-81
2022/07/26 07:17:21;;;;;;;79.77;38.30;;;20.70;99.90;;;;;;5082496;28;20160;-81
2022/07/26 07:19:47;;;;;;;78.13;35.53;;;20.70;99.90;;;;;;5081977;28;20207;-81
2022/07/26 07:22:13;;;;;;;75.97;34.40;;;20.70;99.90;;;;;;5081554;28;20206;-81
2022/07/26 07:24:39;;;;;;;80.43;34.90;;;20.80;99.90;;;;;;5082626;28;20174;-81
2022/07/26 07:27:05;;;;;;;82.37;41.77;;;20.90;99.90;;;;;;5081754;28;20171;-81
2022/07/26 07:29:31;;;;;;;79.20;33.97;;;20.90;99.90;;;;;;5081491;28;20451;-80
2022/07/26 07:31:57;;;;;;;80.30;36.00;;;21.00;99.80;;;;;;5081671;28;20196;-81
2022/07/26 07:34:22;;;;;;;79.23;34.67;;;21.20;99.10;;;;;;5080444;28;20174;-81
2022/07/26 07:36:49;;;;;;;78.00;30.00;;;21.20;98.70;;;;;;5082337;28;20170;-81
2022/07/26 07:39:15;;;;;;;81.63;33.80;;;21.20;97.50;;;;;;5081215;28;20194;-81
2022/07/26 07:41:41;;;;;;;75.80;25.90;;;21.30;98.10;;;;;;5080946;28;20920;-81
2022/07/26 07:44:10;;;;;;;76.40;20.50;;;21.40;95.70;;;;;;5082026;28;20422;-81
2022/07/26 07:46:35;;;;;;;73.20;19.40;;;21.60;93.30;;;;;;5080616;28;20423;-81
2022/07/26 07:49:01;;;;;;;78.13;22.83;;;21.60;92.20;;;;;;5081052;28;20497;-81
2022/07/26 07:51:27;;;;;;;76.57;21.17;;;21.60;94.00;;;;;;5081364;28;20189;-81
2022/07/26 07:53:53;;;;;;;78.93;17.47;;;21.50;92.60;;;;;;5081754;28;20160;-81
2022/07/26 07:56:19;;;;;;;72.27;16.60;;;21.60;91.70;;;;;;5081132;28;20184;-81
2022/07/26 07:58:45;;;;;;;75.40;14.43;;;21.70;91.90;;;;;;5080954;28;20441;-81
2022/07/26 08:01:11;;;;;;;71.47;14.37;;;21.70;91.10;;;;;;5081355;28;20156;-82
2022/07/26 08:03:36;;;;;;;76.53;13.27;;;21.70;90.90;;;;;;5080956;28;20161;-81
2022/07/26 08:06:05;;;;;;;73.17;13.13;;;21.80;91.20;;;;;;5079214;28;20168;-81
2022/07/26 08:08:30;;;;;;;74.57;15.90;;;21.70;91.20;;;;;;5080117;28;20457;-81
2022/07/26 08:10:56;;;;;;;72.67;14.87;;;21.70;92.10;;;;;;5078647;28;20413;-81
2022/07/26 08:13:22;;;;;;;78.03;11.60;;;21.80;90.80;;;;;;5078754;28;20525;-81
2022/07/26 08:15:53;;;;;;;75.07;11.00;;;21.90;90.00;;;;;;5079454;28;20184;-81
2022/07/26 08:18:20;;;;;;;76.13;10.73;;;21.90;88.10;;;;;;5081164;28;20471;-81
2022/07/26 08:20:46;;;;;;;74.93;13.53;;;21.90;87.50;;;;;;5080133;28;20404;-81
2022/07/26 08:23:12;;;;;;;76.47;13.07;;;21.90;90.50;;;;;;5080021;28;20494;-81
2022/07/26 08:25:38;;;;;;;81.30;12.40;;;21.90;91.90;;;;;;5079030;28;20412;-81
2022/07/26 08:28:04;;;;;;;73.80;10.23;;;22.10;90.70;;;;;;5078761;28;20437;-81
2022/07/26 08:30:31;;;;;;;72.73;8.67;;;22.20;83.80;;;;;;5078737;28;20199;-81
2022/07/26 08:32:57;;;;;;;71.90;9.30;;;22.30;78.00;;;;;;5079269;28;20500;-81
2022/07/26 08:35:23;;;;;;;81.43;11.07;;;22.30;76.90;;;;;;5078869;28;20481;-81
2022/07/26 08:37:49;;;;;;;76.73;10.10;;;22.20;87.30;;;;;;5079104;28;20333;-81
2022/07/26 08:40:14;;;;;;;74.20;9.10;;;22.20;83.50;;;;;;5078601;28;20217;-81
2022/07/26 08:42:48;;;;;;;76.27;9.53;;;22.20;83.00;;;;;;5080056;28;20406;-81
2022/07/26 08:47:46;;;;;;;71.80;8.40;;;22.00;87.00;;;;;;5142611;22;20482;-85
2022/07/26 08:50:11;;;;;;;72.50;9.67;;;22.20;86.10;;;;;;5077799;28;20456;-85
2022/07/26 08:52:39;;;;;;;72.17;8.87;;;22.40;86.00;;;;;;5078758;28;20157;-85
2022/07/26 08:55:05;;;;;;;75.10;8.83;;;22.60;81.50;;;;;;5077997;28;20180;-85
2022/07/26 08:57:31;;;;;;;75.63;9.93;;;22.60;70.10;;;;;;5059641;28;20421;-85
2022/07/26 09:00:33;;;;;;;74.50;11.13;;;22.60;67.10;;;;;;5077974;28;20402;-85
2022/07/26 09:03:00;;;;;;;73.10;10.50;;;22.50;69.90;;;;;;4995397;28;20180;-85
2022/07/26 09:05:36;;;;;;;77.43;9.47;;;22.50;74.40;;;;;;5061591;28;20418;-84
2022/07/26 09:08:23;;;;;;;74.03;9.37;;;22.40;74.50;;;;;;5076697;28;20953;-85
2022/07/26 09:10:48;;;;;;;70.40;8.40;;;22.50;78.40;;;;;;5077147;28;20396;-85
2022/07/26 09:13:15;;;;;;;76.33;15.90;;;22.50;77.50;;;;;;5076706;28;20917;-85
2022/07/26 09:15:41;;;;;;;77.83;8.90;;;22.60;78.90;;;;;;5076688;28;20184;-85
2022/07/26 09:18:27;;;;;;;79.33;10.27;;;22.80;74.30;;;;;;5078933;28;20421;-84
2022/07/26 09:20:53;;;;;;;71.60;9.60;;;22.80;59.50;;;;;;5081100;28;20375;-85
2022/07/26 09:23:19;;;;;;;74.03;10.27;;;22.80;64.20;;;;;;5080600;28;20766;-85
2022/07/26 09:25:45;;;;;;;75.80;14.23;;;22.80;63.70;;;;;;5081773;28;20698;-84
2022/07/26 09:28:28;;;;;;;74.70;12.07;;;23.00;57.00;;;;;;5080430;28;20215;-85
2022/07/26 09:31:07;;;;;;;74.47;14.23;;;23.10;61.60;;;;;;5080391;28;20440;-85
2022/07/26 09:33:47;;;;;;;78.10;19.87;;;23.20;56.60;;;;;;5083614;28;20386;-85
2022/07/26 09:36:14;;;;;;;80.73;21.90;;;23.40;52.30;;;;;;5085543;28;20453;-85
2022/07/26 09:38:43;;;;;;;80.23;25.97;;;23.50;45.10;;;;;;5084928;28;20828;-85
2022/07/26 09:41:35;;;;;;;77.80;24.10;;;23.50;46.60;;;;;;5084892;28;20493;-85
2022/07/26 09:44:24;;;;;;;77.87;22.27;;;23.60;41.90;;;;;;5085918;28;20394;-85
2022/07/26 09:46:59;;;;;;;75.43;19.87;;;23.50;42.00;;;;;;5085686;28;20449;-85
2022/07/26 09:49:25;;;;;;;71.47;11.53;;;23.50;40.30;;;;;;5084993;28;21016;-85
2022/07/26 09:51:53;;;;;;;75.40;13.57;;;23.50;34.30;;;;;;5084526;28;20405;-85
2022/07/26 09:54:18;;;;;;;76.20;10.70;;;23.50;36.80;;;;;;5084560;28;20766;-86
2022/07/26 09:56:51;;;;;;;73.20;13.53;;;23.50;33.60;;;;;;5084174;28;20441;-85
2022/07/26 09:59:19;;;;;;;76.67;12.47;;;23.60;33.50;;;;;;5086136;28;20179;-85
2022/07/26 10:01:46;;;;;;;72.83;12.77;;;23.80;33.30;;;;;;5084976;28;20430;-85
2022/07/26 10:04:12;;;;;;;70.80;8.37;;;24.00;33.10;;;;;;5085284;28;20430;-85
2022/07/26 10:06:40;;;;;;;70.37;6.80;;;24.00;25.60;;;;;;5084023;28;20402;-85
2022/07/26 10:09:07;;;;;;;68.60;6.47;;;24.10;24.10;;;;;;5066475;28;20480;-83
2022/07/26 10:11:55;;;;;;;70.37;7.20;;;24.30;24.10;;;;;;5083881;28;21028;-83
2022/07/26 10:14:37;;;;;;;71.87;8.20;;;24.40;19.20;;;;;;5084887;28;20387;-83
2022/07/26 10:17:40;;;;;;;68.70;5.10;;;24.50;12.70;;;;;;5084311;28;20932;-83
2022/07/26 10:20:30;;;;;;;70.43;5.70;;;24.70;11.40;;;;;;5033435;28;20427;-83
2022/07/26 10:22:55;;;;;;;72.47;5.77;;;24.80;8.70;;;;;;5085052;28;20551;-83
2022/07/26 10:25:21;;;;;;;71.20;5.50;;;25.00;2.30;;;;;;5083502;28;20426;-83
2022/07/26 10:27:52;;;;;;;70.70;5.30;;;24.90;1.00;;;;;;5084207;28;20188;-83
2022/07/26 10:30:18;;;;;;;68.53;5.37;;;24.80;1.50;;;;;;5083785;28;20531;-83
2022/07/26 10:32:49;;;;;;;73.27;5.80;;;24.90;2.00;;;;;;5083639;28;20406;-83
2022/07/26 10:35:31;;;;;;;70.30;5.77;;;25.10;1.00;;;;;;5084764;28;20191;-84
2022/07/26 10:38:03;;;;;;;69.57;5.80;;;25.20;1.10;;;;;;5084980;28;20427;-83
2022/07/26 10:40:29;;;;;;;74.50;6.37;;;25.40;1.00;;;;;;5085449;28;20380;-83
2022/07/26 10:43:13;;;;;;;69.27;5.03;;;25.80;1.00;;;;;;5085520;28;20392;-84
2022/07/26 10:45:40;;;;;;;78.73;5.33;;;25.90;1.00;;;;;;5084109;28;20414;-82
2022/07/26 10:48:21;;;;;;;69.70;4.73;;;26.20;1.00;;;;;;5083636;28;20790;-83
2022/07/26 10:50:52;;;;;;;71.97;5.20;;;26.20;1.00;;;;;;5084024;28;20384;-83
2022/07/26 10:53:23;;;;;;;71.03;5.00;;;26.00;1.00;;;;;;5065580;28;20416;-83
2022/07/26 10:55:57;;;;;;;72.90;5.47;;;25.70;1.00;;;;;;5083531;28;20468;-83
2022/07/26 10:58:25;;;;;;;71.50;5.10;;;25.50;1.00;;;;;;5081416;28;20440;-83
2022/07/26 11:00:59;;;;;;;72.63;4.47;;;25.70;1.00;;;;;;5079856;28;20404;-82
2022/07/26 11:03:36;;;;;;;73.10;4.80;;;26.00;1.00;;;;;;5079108;28;20388;-82
2022/07/26 11:06:16;;;;;;;68.30;4.23;;;26.10;1.00;;;;;;5079820;28;20397;-83
2022/07/26 11:08:47;;;;;;;68.50;3.97;;;26.30;1.00;;;;;;5078410;28;20481;-82
2022/07/26 11:11:13;;;;;;;71.60;4.43;;;26.60;1.00;;;;;;5079109;28;20845;-82
2022/07/26 11:13:39;;;;;;;70.20;4.80;;;27.00;1.00;;;;;;5079398;28;20900;-83
2022/07/26 11:16:07;;;;;;;68.30;5.27;;;27.40;1.00;;;;;;5079681;28;20452;-83
2022/07/26 11:18:36;;;;;;;68.57;5.40;;;27.20;1.00;;;;;;5078795;28;20777;-83
2022/07/26 11:21:14;;;;;;;69.57;6.00;;;27.10;1.00;;;;;;5078971;28;20773;-83
2022/07/26 11:23:44;;;;;;;69.70;7.10;;;27.30;1.00;;;;;;5078907;28;20406;-82
2022/07/26 11:26:17;;;;;;;71.17;6.20;;;27.50;1.00;;;;;;5078572;28;20389;-82
2022/07/26 11:28:55;;;;;;;73.67;6.93;;;27.90;1.00;;;;;;5079840;28;20424;-83
2022/07/26 11:31:33;;;;;;;69.30;5.10;;;28.10;1.00;;;;;;5080400;28;20729;-83
2022/07/26 11:33:58;;;;;;;70.37;5.00;;;27.90;1.00;;;;;;5080779;28;20735;-83
2022/07/26 11:36:33;;;;;;;68.87;4.70;;;27.60;1.00;;;;;;5081311;28;20453;-83
2022/07/26 11:39:00;;;;;;;71.10;5.20;;;27.10;1.00;;;;;;5081404;28;20184;-83
2022/07/26 11:41:28;;;;;;;66.30;4.47;;;26.20;1.00;;;;;;5081641;28;20414;-83
2022/07/26 11:43:55;;;;;;;70.20;6.67;;;25.60;1.00;;;;;;5081717;28;20483;-83
2022/07/26 11:46:22;;;;;;;71.07;6.00;;;25.00;1.00;;;;;;5080780;28;20441;-84
2022/07/26 11:48:49;;;;;;;72.07;5.27;;;24.50;1.00;;;;;;5080760;28;20427;-84
2022/07/26 11:51:20;;;;;;;69.50;5.70;;;24.10;8.70;;;;;;5077700;28;20410;-84
2022/07/26 11:53:46;;;;;;;70.77;5.93;;;23.70;38.70;;;;;;5076061;28;20746;-84
2022/07/26 11:56:16;;;;;;;69.10;7.60;;;23.40;48.50;;;;;;5074600;28;20450;-84
2022/07/26 11:58:43;;;;;;;72.67;11.63;;;23.10;56.90;;;;;;5057526;28;20479;-84
2022/07/26 12:01:11;;;;;;;71.43;14.90;;;23.10;67.20;;;;;;5076772;28;20455;-86
2022/07/26 12:03:38;;;;;;;72.30;18.97;;;23.00;65.90;;;;;;5076179;28;20753;-86
2022/07/26 12:06:09;;;;;;;72.57;16.23;;;22.80;69.30;;;;;;5077278;28;20413;-86
2022/07/26 12:08:50;;;;;;;66.60;6.70;;;22.80;68.60;;;;;;5079005;28;20493;-86
2022/07/26 12:11:19;;;;;;;68.07;7.50;;;22.60;54.10;;;;;;5060779;28;20410;-84
2022/07/26 12:14:01;;;;;;;72.43;7.97;;;22.50;55.20;;;;;;5077887;28;20804;-84
2022/07/26 12:16:37;;;;;;;67.57;7.77;;;22.40;59.30;;;;;;5077882;28;20453;-84
2022/07/26 12:19:07;;;;;;;68.37;8.37;;;22.30;57.60;;;;;;5077736;28;20424;-84
2022/07/26 12:21:49;;;;;;;70.07;13.97;;;22.20;56.90;;;;;;5059621;28;20983;-84
2022/07/26 12:24:41;;;;;;;71.80;16.17;;;22.10;61.90;;;;;;5078114;28;20382;-84
2022/07/26 12:27:08;;;;;;;72.80;11.27;;;22.20;67.70;;;;;;5079130;28;20405;-84
2022/07/26 12:29:37;;;;;;;72.53;14.70;;;22.20;58.20;;;;;;5061613;28;20410;-84
2022/07/26 12:32:06;;;;;;;73.60;16.40;;;22.40;58.70;;;;;;5059486;28;20410;-84
2022/07/26 12:34:32;;;;;;;69.57;10.37;;;22.60;57.70;;;;;;5078195;28;20917;-84
2022/07/26 12:37:13;;;;;;;68.07;10.80;;;22.80;49.50;;;;;;5061039;28;20410;-84
2022/07/26 12:39:40;;;;;;;68.53;7.40;;;23.00;48.90;;;;;;5079605;28;20462;-84